sensor_id;sensor_type;location;lat;lon;timestamp;P1;durP1;ratioP1;P2;durP2;ratioP2
483;SDS011;228;48.922;12.198;2023-06-01T04:02:42;6.73;;;3.50;;
483;SDS011;228;48.922;12.198;2023-06-01T04:05:10;7.33;;;2.50;;
483;SDS011;228;48.922;12.198;2023-06-01T04:07:43;4.73;;;2.73;;
483;SDS011;228;48.922;12.198;2023-06-01T04:10:11;3.10;;;2.50;;
483;SDS011;228;48.922;12.198;2023-06-01T04:12:42;4.13;;;2.70;;
483;SDS011;228;48.922;12.198;2023-06-01T04:15:10;4.03;;;2.80;;
483;SDS011;228;48.922;12.198;2023-06-01T04:17:39;3.97;;;3.00;;
483;SDS011;228;48.922;12.198;2023-06-01T04:20:08;4.60;;;2.87;;
483;SDS011;228;48.922;12.198;2023-06-01T04:22:37;3.57;;;2.87;;
483;SDS011;228;48.922;12.198;2023-06-01T04:25:07;4.20;;;3.43;;
483;SDS011;228;48.922;12.198;2023-06-01T04:27:42;4.63;;;2.87;;
483;SDS011;228;48.922;12.198;2023-06-01T04:30:14;3.20;;;2.47;;
483;SDS011;228;48.922;12.198;2023-06-01T04:32:42;3.87;;;2.60;;
483;SDS011;228;48.922;12.198;2023-06-01T04:35:11;2.77;;;2.57;;
483;SDS011;228;48.922;12.198;2023-06-01T04:37:37;5.27;;;2.90;;
483;SDS011;228;48.922;12.198;2023-06-01T04:40:06;3.10;;;2.50;;
483;SDS011;228;48.922;12.198;2023-06-01T04:42:35;4.83;;;3.07;;
483;SDS011;228;48.922;12.198;2023-06-01T04:45:21;4.20;;;2.73;;
483;SDS011;228;48.922;12.198;2023-06-01T04:47:49;4.13;;;2.70;;
483;SDS011;228;48.922;12.198;2023-06-01T04:50:23;5.50;;;3.13;;
483;SDS011;228;48.922;12.198;2023-06-01T04:52:49;3.43;;;2.90;;
483;SDS011;228;48.922;12.198;2023-06-01T04:55:15;3.10;;;2.80;;
483;SDS011;228;48.922;12.198;2023-06-01T04:57:42;8.73;;;3.10;;
483;SDS011;228;48.922;12.198;2023-06-01T05:00:09;3.10;;;2.70;;
483;SDS011;228;48.922;12.198;2023-06-01T05:02:41;5.07;;;2.70;;
483;SDS011;228;48.922;12.198;2023-06-01T05:05:10;3.43;;;2.50;;
483;SDS011;228;48.922;12.198;2023-06-01T05:07:37;4.60;;;2.70;;
483;SDS011;228;48.922;12.198;2023-06-01T05:10:04;3.33;;;2.60;;
483;SDS011;228;48.922;12.198;2023-06-01T05:12:40;2.83;;;2.40;;
483;SDS011;228;48.922;12.198;2023-06-01T05:15:07;2.67;;;2.47;;
483;SDS011;228;48.922;12.198;2023-06-01T05:17:35;4.10;;;2.63;;
483;SDS011;228;48.922;12.198;2023-06-01T05:20:04;3.33;;;2.73;;
483;SDS011;228;48.922;12.198;2023-06-01T05:22:34;4.07;;;3.17;;
483;SDS011;228;48.922;12.198;2023-06-01T05:25:01;4.13;;;2.83;;
483;SDS011;228;48.922;12.198;2023-06-01T05:27:29;5.40;;;2.97;;
483;SDS011;228;48.922;12.198;2023-06-01T05:29:55;5.03;;;2.73;;
483;SDS011;228;48.922;12.198;2023-06-01T05:32:21;4.97;;;2.67;;
483;SDS011;228;48.922;12.198;2023-06-01T05:34:47;4.17;;;2.77;;
483;SDS011;228;48.922;12.198;2023-06-01T05:37:13;4.70;;;2.90;;
483;SDS011;228;48.922;12.198;2023-06-01T05:39:39;3.57;;;2.57;;
483;SDS011;228;48.922;12.198;2023-06-01T05:42:06;4.47;;;2.87;;
483;SDS011;228;48.922;12.198;2023-06-01T05:44:37;3.27;;;2.57;;
483;SDS011;228;48.922;12.198;2023-06-01T05:47:03;3.17;;;2.53;;
483;SDS011;228;48.922;12.198;2023-06-01T05:49:29;4.07;;;2.80;;
483;SDS011;228;48.922;12.198;2023-06-01T05:51:57;2.20;;;2.00;;
483;SDS011;228;48.922;12.198;2023-06-01T05:54:27;3.27;;;2.57;;
483;SDS011;228;48.922;12.198;2023-06-01T05:56:53;3.80;;;2.50;;
483;SDS011;228;48.922;12.198;2023-06-01T05:59:20;4.97;;;2.37;;
483;SDS011;228;48.922;12.198;2023-06-01T06:01:46;3.77;;;2.70;;
483;SDS011;228;48.922;12.198;2023-06-01T06:04:13;3.90;;;2.70;;
483;SDS011;228;48.922;12.198;2023-06-01T06:06:40;5.17;;;2.97;;
483;SDS011;228;48.922;12.198;2023-06-01T06:09:06;3.43;;;2.30;;
483;SDS011;228;48.922;12.198;2023-06-01T06:11:32;3.43;;;2.50;;
483;SDS011;228;48.922;12.198;2023-06-01T06:13:58;3.20;;;2.60;;
483;SDS011;228;48.922;12.198;2023-06-01T06:16:24;7.67;;;3.10;;
483;SDS011;228;48.922;12.198;2023-06-01T06:18:50;4.37;;;2.57;;
483;SDS011;228;48.922;12.198;2023-06-01T06:21:16;6.28;;;2.90;;
483;SDS011;228;48.922;12.198;2023-06-01T06:23:42;4.20;;;2.53;;
483;SDS011;228;48.922;12.198;2023-06-01T06:26:10;4.05;;;2.75;;
483;SDS011;228;48.922;12.198;2023-06-01T06:28:36;4.35;;;2.67;;
483;SDS011;228;48.922;12.198;2023-06-01T06:31:02;3.13;;;2.45;;
483;SDS011;228;48.922;12.198;2023-06-01T06:33:28;3.85;;;2.25;;
483;SDS011;228;48.922;12.198;2023-06-01T06:35:54;4.22;;;2.58;;
483;SDS011;228;48.922;12.198;2023-06-01T06:38:22;3.72;;;2.70;;
483;SDS011;228;48.922;12.198;2023-06-01T06:40:48;4.05;;;2.67;;
483;SDS011;228;48.922;12.198;2023-06-01T06:43:16;5.10;;;2.63;;
483;SDS011;228;48.922;12.198;2023-06-01T06:45:43;4.10;;;2.75;;
483;SDS011;228;48.922;12.198;2023-06-01T06:48:09;8.57;;;3.20;;
483;SDS011;228;48.922;12.198;2023-06-01T06:50:35;6.90;;;3.13;;
483;SDS011;228;48.922;12.198;2023-06-01T06:53:02;6.82;;;2.67;;
483;SDS011;228;48.922;12.198;2023-06-01T06:55:29;5.50;;;2.60;;
483;SDS011;228;48.922;12.198;2023-06-01T06:57:55;6.15;;;2.65;;
483;SDS011;228;48.922;12.198;2023-06-01T07:00:21;4.50;;;2.50;;
483;SDS011;228;48.922;12.198;2023-06-01T07:02:47;4.10;;;2.50;;
483;SDS011;228;48.922;12.198;2023-06-01T07:05:13;3.50;;;2.70;;
483;SDS011;228;48.922;12.198;2023-06-01T07:07:41;3.08;;;2.60;;
483;SDS011;228;48.922;12.198;2023-06-01T07:10:09;7.43;;;2.55;;
483;SDS011;228;48.922;12.198;2023-06-01T07:12:36;4.82;;;3.13;;
483;SDS011;228;48.922;12.198;2023-06-01T07:15:02;6.53;;;2.58;;
483;SDS011;228;48.922;12.198;2023-06-01T07:17:28;5.15;;;2.83;;
483;SDS011;228;48.922;12.198;2023-06-01T07:19:56;5.78;;;2.90;;
483;SDS011;228;48.922;12.198;2023-06-01T07:22:26;3.50;;;2.78;;
483;SDS011;228;48.922;12.198;2023-06-01T07:24:54;5.07;;;2.40;;
483;SDS011;228;48.922;12.198;2023-06-01T07:27:28;4.28;;;2.72;;
483;SDS011;228;48.922;12.198;2023-06-01T07:32:07;5.35;;;2.63;;
483;SDS011;228;48.922;12.198;2023-06-01T07:35:34;8.55;;;2.83;;
483;SDS011;228;48.922;12.198;2023-06-01T07:38:07;3.67;;;2.70;;
483;SDS011;228;48.922;12.198;2023-06-01T07:40:34;4.95;;;2.83;;
483;SDS011;228;48.922;12.198;2023-06-01T07:43:00;6.10;;;2.70;;
483;SDS011;228;48.922;12.198;2023-06-01T07:45:27;4.95;;;3.00;;
483;SDS011;228;48.922;12.198;2023-06-01T07:47:53;5.40;;;2.80;;
483;SDS011;228;48.922;12.198;2023-06-01T07:52:53;4.32;;;3.35;;
483;SDS011;228;48.922;12.198;2023-06-01T07:55:19;3.97;;;2.70;;
483;SDS011;228;48.922;12.198;2023-06-01T07:57:45;3.88;;;2.60;;
483;SDS011;228;48.922;12.198;2023-06-01T08:00:11;5.88;;;2.60;;
483;SDS011;228;48.922;12.198;2023-06-01T08:02:38;4.28;;;2.60;;
483;SDS011;228;48.922;12.198;2023-06-01T08:05:05;5.22;;;3.00;;
483;SDS011;228;48.922;12.198;2023-06-01T08:07:32;5.50;;;3.17;;
483;SDS011;228;48.922;12.198;2023-06-01T08:09:58;5.07;;;2.67;;
483;SDS011;228;48.922;12.198;2023-06-01T08:12:24;6.70;;;2.95;;
483;SDS011;228;48.922;12.198;2023-06-01T08:14:51;3.65;;;2.90;;
483;SDS011;228;48.922;12.198;2023-06-01T08:17:17;4.70;;;2.50;;
483;SDS011;228;48.922;12.198;2023-06-01T08:19:44;4.05;;;2.85;;
483;SDS011;228;48.922;12.198;2023-06-01T08:22:10;5.22;;;2.95;;
483;SDS011;228;48.922;12.198;2023-06-01T08:24:37;4.57;;;3.20;;
483;SDS011;228;48.922;12.198;2023-06-01T08:27:15;4.93;;;3.00;;
483;SDS011;228;48.922;12.198;2023-06-01T08:29:47;4.68;;;2.78;;
483;SDS011;228;48.922;12.198;2023-06-01T08:32:14;6.40;;;3.22;;
483;SDS011;228;48.922;12.198;2023-06-01T08:34:44;7.15;;;2.70;;
483;SDS011;228;48.922;12.198;2023-06-01T08:37:12;4.53;;;2.70;;
483;SDS011;228;48.922;12.198;2023-06-01T08:39:39;4.40;;;2.75;;
483;SDS011;228;48.922;12.198;2023-06-01T08:44:39;8.30;;;3.30;;
483;SDS011;228;48.922;12.198;2023-06-01T08:47:06;6.22;;;3.00;;
483;SDS011;228;48.922;12.198;2023-06-01T08:49:34;3.03;;;2.72;;
483;SDS011;228;48.922;12.198;2023-06-01T08:52:11;4.30;;;2.80;;
483;SDS011;228;48.922;12.198;2023-06-01T08:54:39;5.97;;;2.95;;
483;SDS011;228;48.922;12.198;2023-06-01T08:57:06;9.98;;;3.58;;
483;SDS011;228;48.922;12.198;2023-06-01T08:59:36;3.50;;;3.03;;
483;SDS011;228;48.922;12.198;2023-06-01T09:02:04;5.35;;;3.35;;
483;SDS011;228;48.922;12.198;2023-06-01T09:04:34;4.35;;;3.10;;
483;SDS011;228;48.922;12.198;2023-06-01T09:07:02;4.22;;;3.08;;
483;SDS011;228;48.922;12.198;2023-06-01T09:09:31;3.95;;;2.97;;
483;SDS011;228;48.922;12.198;2023-06-01T09:14:47;4.03;;;3.25;;
483;SDS011;228;48.922;12.198;2023-06-01T09:17:13;5.90;;;3.60;;
483;SDS011;228;48.922;12.198;2023-06-01T09:19:53;7.68;;;3.60;;
483;SDS011;228;48.922;12.198;2023-06-01T09:22:23;5.43;;;3.55;;
483;SDS011;228;48.922;12.198;2023-06-01T09:24:58;5.60;;;3.80;;
483;SDS011;228;48.922;12.198;2023-06-01T09:27:25;5.47;;;3.35;;
483;SDS011;228;48.922;12.198;2023-06-01T09:29:52;5.90;;;3.45;;
483;SDS011;228;48.922;12.198;2023-06-01T09:32:24;5.65;;;3.97;;
483;SDS011;228;48.922;12.198;2023-06-01T09:34:50;4.90;;;3.50;;
483;SDS011;228;48.922;12.198;2023-06-01T09:37:16;4.55;;;3.45;;
483;SDS011;228;48.922;12.198;2023-06-01T09:39:42;4.18;;;3.60;;
483;SDS011;228;48.922;12.198;2023-06-01T09:42:09;7.05;;;3.60;;
483;SDS011;228;48.922;12.198;2023-06-01T09:44:36;5.38;;;3.38;;
483;SDS011;228;48.922;12.198;2023-06-01T09:52:08;4.82;;;3.38;;
483;SDS011;228;48.922;12.198;2023-06-01T09:54:44;5.45;;;3.20;;
483;SDS011;228;48.922;12.198;2023-06-01T09:57:24;5.85;;;3.55;;
483;SDS011;228;48.922;12.198;2023-06-01T09:59:54;5.10;;;3.97;;
483;SDS011;228;48.922;12.198;2023-06-01T10:02:21;6.95;;;3.42;;
483;SDS011;228;48.922;12.198;2023-06-01T10:04:49;5.22;;;3.35;;
483;SDS011;228;48.922;12.198;2023-06-01T10:07:18;6.38;;;3.70;;
483;SDS011;228;48.922;12.198;2023-06-01T10:09:45;5.38;;;3.60;;
483;SDS011;228;48.922;12.198;2023-06-01T10:12:17;5.20;;;3.05;;
483;SDS011;228;48.922;12.198;2023-06-01T10:14:43;4.20;;;3.35;;
483;SDS011;228;48.922;12.198;2023-06-01T10:17:09;4.32;;;3.20;;
483;SDS011;228;48.922;12.198;2023-06-01T10:19:39;4.35;;;3.10;;
483;SDS011;228;48.922;12.198;2023-06-01T10:22:06;5.65;;;3.22;;
483;SDS011;228;48.922;12.198;2023-06-01T10:24:32;4.05;;;2.95;;
483;SDS011;228;48.922;12.198;2023-06-01T10:27:16;4.35;;;3.25;;
483;SDS011;228;48.922;12.198;2023-06-01T10:29:56;6.80;;;3.55;;
483;SDS011;228;48.922;12.198;2023-06-01T10:35:03;3.45;;;2.80;;
483;SDS011;228;48.922;12.198;2023-06-01T10:37:31;4.47;;;3.20;;
483;SDS011;228;48.922;12.198;2023-06-01T10:40:13;3.58;;;2.90;;
483;SDS011;228;48.922;12.198;2023-06-01T10:42:49;4.82;;;3.28;;
483;SDS011;228;48.922;12.198;2023-06-01T10:48:01;5.72;;;3.30;;
483;SDS011;228;48.922;12.198;2023-06-01T10:50:29;6.55;;;3.47;;
483;SDS011;228;48.922;12.198;2023-06-01T10:52:55;4.75;;;3.35;;
483;SDS011;228;48.922;12.198;2023-06-01T10:55:22;4.35;;;3.58;;
483;SDS011;228;48.922;12.198;2023-06-01T10:57:51;4.63;;;3.25;;
483;SDS011;228;48.922;12.198;2023-06-01T11:00:47;3.88;;;3.38;;
483;SDS011;228;48.922;12.198;2023-06-01T11:03:14;3.50;;;2.97;;
483;SDS011;228;48.922;12.198;2023-06-01T11:05:41;5.40;;;3.45;;
483;SDS011;228;48.922;12.198;2023-06-01T11:13:17;4.82;;;3.20;;
483;SDS011;228;48.922;12.198;2023-06-01T11:21:24;3.53;;;3.10;;
483;SDS011;228;48.922;12.198;2023-06-01T11:23:56;4.60;;;3.63;;
483;SDS011;228;48.922;12.198;2023-06-01T11:26:25;3.60;;;3.28;;
483;SDS011;228;48.922;12.198;2023-06-01T11:29:06;4.32;;;3.22;;
483;SDS011;228;48.922;12.198;2023-06-01T11:31:54;6.13;;;2.97;;
483;SDS011;228;48.922;12.198;2023-06-01T11:34:40;3.63;;;3.22;;
483;SDS011;228;48.922;12.198;2023-06-01T11:37:13;4.80;;;3.38;;
483;SDS011;228;48.922;12.198;2023-06-01T11:39:42;5.07;;;3.35;;
483;SDS011;228;48.922;12.198;2023-06-01T11:42:14;3.90;;;2.50;;
483;SDS011;228;48.922;12.198;2023-06-01T11:44:46;4.80;;;3.38;;
483;SDS011;228;48.922;12.198;2023-06-01T11:47:22;6.45;;;3.35;;
483;SDS011;228;48.922;12.198;2023-06-01T11:49:53;4.95;;;3.45;;
483;SDS011;228;48.922;12.198;2023-06-01T11:52:19;4.38;;;3.25;;
483;SDS011;228;48.922;12.198;2023-06-01T11:54:46;3.42;;;3.13;;
483;SDS011;228;48.922;12.198;2023-06-01T11:57:13;4.45;;;3.35;;
483;SDS011;228;48.922;12.198;2023-06-01T11:59:41;4.43;;;3.40;;
483;SDS011;228;48.922;12.198;2023-06-01T12:02:20;5.90;;;3.25;;
483;SDS011;228;48.922;12.198;2023-06-01T12:04:55;5.20;;;3.30;;
483;SDS011;228;48.922;12.198;2023-06-01T12:07:43;3.28;;;3.08;;
483;SDS011;228;48.922;12.198;2023-06-01T12:10:18;3.88;;;3.17;;
483;SDS011;228;48.922;12.198;2023-06-01T12:12:45;3.40;;;3.10;;
483;SDS011;228;48.922;12.198;2023-06-01T12:15:13;3.65;;;3.22;;
483;SDS011;228;48.922;12.198;2023-06-01T12:17:54;4.03;;;3.10;;
483;SDS011;228;48.922;12.198;2023-06-01T12:22:58;4.60;;;2.95;;
483;SDS011;228;48.922;12.198;2023-06-01T12:25:26;27.75;;;5.05;;
483;SDS011;228;48.922;12.198;2023-06-01T12:28:02;4.22;;;3.28;;
483;SDS011;228;48.922;12.198;2023-06-01T12:30:30;4.15;;;3.00;;
483;SDS011;228;48.922;12.198;2023-06-01T12:32:56;5.25;;;2.88;;
483;SDS011;228;48.922;12.198;2023-06-01T12:35:23;3.42;;;3.13;;
483;SDS011;228;48.922;12.198;2023-06-01T12:38:02;3.53;;;3.22;;
483;SDS011;228;48.922;12.198;2023-06-01T12:40:34;3.20;;;2.80;;
483;SDS011;228;48.922;12.198;2023-06-01T12:43:00;6.00;;;3.33;;
483;SDS011;228;48.922;12.198;2023-06-01T12:45:34;4.65;;;3.20;;
483;SDS011;228;48.922;12.198;2023-06-01T12:48:05;5.13;;;3.60;;
483;SDS011;228;48.922;12.198;2023-06-01T12:50:32;4.55;;;3.10;;
483;SDS011;228;48.922;12.198;2023-06-01T12:52:58;4.65;;;3.58;;
483;SDS011;228;48.922;12.198;2023-06-01T12:55:24;4.38;;;3.15;;
483;SDS011;228;48.922;12.198;2023-06-01T12:57:53;3.22;;;2.88;;
483;SDS011;228;48.922;12.198;2023-06-01T13:00:21;4.72;;;3.15;;
483;SDS011;228;48.922;12.198;2023-06-01T13:02:47;3.67;;;3.13;;
483;SDS011;228;48.922;12.198;2023-06-01T13:05:15;4.93;;;3.22;;
483;SDS011;228;48.922;12.198;2023-06-01T13:07:42;5.47;;;3.20;;
483;SDS011;228;48.922;12.198;2023-06-01T13:10:12;3.47;;;3.15;;
483;SDS011;228;48.922;12.198;2023-06-01T13:12:39;2.88;;;2.60;;
483;SDS011;228;48.922;12.198;2023-06-01T13:15:07;3.25;;;2.95;;
483;SDS011;228;48.922;12.198;2023-06-01T13:17:34;3.97;;;2.90;;
483;SDS011;228;48.922;12.198;2023-06-01T13:20:00;3.72;;;3.22;;
483;SDS011;228;48.922;12.198;2023-06-01T13:22:27;3.22;;;2.92;;
483;SDS011;228;48.922;12.198;2023-06-01T13:24:53;3.25;;;2.88;;
483;SDS011;228;48.922;12.198;2023-06-01T13:27:19;3.17;;;2.88;;
483;SDS011;228;48.922;12.198;2023-06-01T13:29:45;3.13;;;2.80;;
483;SDS011;228;48.922;12.198;2023-06-01T13:32:11;5.55;;;2.95;;
483;SDS011;228;48.922;12.198;2023-06-01T13:34:37;5.70;;;2.58;;
483;SDS011;228;48.922;12.198;2023-06-01T13:37:04;3.45;;;3.15;;
483;SDS011;228;48.922;12.198;2023-06-01T13:39:30;7.22;;;2.67;;
483;SDS011;228;48.922;12.198;2023-06-01T13:41:56;3.53;;;3.00;;
483;SDS011;228;48.922;12.198;2023-06-01T13:44:22;3.20;;;2.80;;
483;SDS011;228;48.922;12.198;2023-06-01T13:46:49;2.75;;;2.55;;
483;SDS011;228;48.922;12.198;2023-06-01T13:49:15;4.45;;;2.90;;
483;SDS011;228;48.922;12.198;2023-06-01T13:51:41;3.13;;;2.83;;
483;SDS011;228;48.922;12.198;2023-06-01T13:54:06;2.95;;;2.75;;
483;SDS011;228;48.922;12.198;2023-06-01T13:56:32;3.10;;;2.90;;
483;SDS011;228;48.922;12.198;2023-06-01T13:58:59;3.33;;;2.90;;
483;SDS011;228;48.922;12.198;2023-06-01T14:01:25;3.42;;;3.03;;
483;SDS011;228;48.922;12.198;2023-06-01T14:03:51;3.28;;;2.90;;
483;SDS011;228;48.922;12.198;2023-06-01T14:06:18;3.85;;;3.13;;
483;SDS011;228;48.922;12.198;2023-06-01T14:08:44;6.10;;;3.50;;
483;SDS011;228;48.922;12.198;2023-06-01T14:11:10;3.28;;;2.97;;
483;SDS011;228;48.922;12.198;2023-06-01T14:13:36;3.53;;;3.22;;
483;SDS011;228;48.922;12.198;2023-06-01T14:16:02;3.55;;;3.25;;
483;SDS011;228;48.922;12.198;2023-06-01T14:18:28;3.58;;;3.28;;
483;SDS011;228;48.922;12.198;2023-06-01T14:20:54;5.55;;;3.10;;
483;SDS011;228;48.922;12.198;2023-06-01T14:23:20;3.85;;;3.22;;
483;SDS011;228;48.922;12.198;2023-06-01T14:25:46;3.58;;;3.15;;
483;SDS011;228;48.922;12.198;2023-06-01T14:28:12;3.80;;;3.15;;
483;SDS011;228;48.922;12.198;2023-06-01T14:30:38;3.20;;;2.90;;
483;SDS011;228;48.922;12.198;2023-06-01T14:33:04;5.38;;;3.25;;
483;SDS011;228;48.922;12.198;2023-06-01T14:35:30;3.53;;;3.20;;
483;SDS011;228;48.922;12.198;2023-06-01T14:37:58;3.38;;;3.08;;
483;SDS011;228;48.922;12.198;2023-06-01T14:40:24;3.65;;;3.33;;
483;SDS011;228;48.922;12.198;2023-06-01T14:42:50;3.40;;;2.95;;
483;SDS011;228;48.922;12.198;2023-06-01T14:45:17;4.30;;;3.35;;
483;SDS011;228;48.922;12.198;2023-06-01T14:47:46;4.35;;;3.05;;
483;SDS011;228;48.922;12.198;2023-06-01T14:50:12;3.42;;;3.13;;
483;SDS011;228;48.922;12.198;2023-06-01T14:52:38;3.65;;;3.17;;
483;SDS011;228;48.922;12.198;2023-06-01T14:55:04;4.85;;;3.65;;
483;SDS011;228;48.922;12.198;2023-06-01T14:57:31;3.45;;;3.15;;
483;SDS011;228;48.922;12.198;2023-06-01T14:59:57;3.47;;;3.25;;
483;SDS011;228;48.922;12.198;2023-06-01T15:02:23;3.50;;;3.20;;
483;SDS011;228;48.922;12.198;2023-06-01T15:04:49;4.45;;;3.42;;
483;SDS011;228;48.922;12.198;2023-06-01T15:07:16;4.13;;;3.13;;
483;SDS011;228;48.922;12.198;2023-06-01T15:09:42;5.57;;;2.85;;
483;SDS011;228;48.922;12.198;2023-06-01T15:12:08;4.15;;;3.40;;
483;SDS011;228;48.922;12.198;2023-06-01T15:14:36;4.28;;;3.45;;
483;SDS011;228;48.922;12.198;2023-06-01T15:17:02;5.18;;;3.20;;
483;SDS011;228;48.922;12.198;2023-06-01T15:19:28;6.22;;;2.83;;
483;SDS011;228;48.922;12.198;2023-06-01T15:21:54;4.57;;;3.22;;
483;SDS011;228;48.922;12.198;2023-06-01T15:24:20;4.43;;;3.20;;
483;SDS011;228;48.922;12.198;2023-06-01T15:26:46;4.28;;;2.80;;
483;SDS011;228;48.922;12.198;2023-06-01T15:29:12;3.97;;;2.83;;
483;SDS011;228;48.922;12.198;2023-06-01T15:31:38;5.65;;;2.90;;
483;SDS011;228;48.922;12.198;2023-06-01T15:34:04;3.20;;;2.97;;
483;SDS011;228;48.922;12.198;2023-06-01T15:36:30;3.45;;;3.15;;
483;SDS011;228;48.922;12.198;2023-06-01T15:38:57;3.33;;;2.90;;
483;SDS011;228;48.922;12.198;2023-06-01T15:41:23;3.58;;;3.28;;
483;SDS011;228;48.922;12.198;2023-06-01T15:43:49;3.63;;;3.00;;
483;SDS011;228;48.922;12.198;2023-06-01T15:46:15;3.50;;;3.20;;
483;SDS011;228;48.922;12.198;2023-06-01T15:48:42;3.80;;;3.15;;
483;SDS011;228;48.922;12.198;2023-06-01T15:51:08;2.90;;;2.65;;
483;SDS011;228;48.922;12.198;2023-06-01T15:53:34;5.13;;;3.10;;
483;SDS011;228;48.922;12.198;2023-06-01T15:56:00;3.30;;;2.78;;
483;SDS011;228;48.922;12.198;2023-06-01T15:58:26;3.22;;;2.92;;
483;SDS011;228;48.922;12.198;2023-06-01T16:00:52;3.38;;;3.03;;
483;SDS011;228;48.922;12.198;2023-06-01T16:03:20;3.85;;;2.90;;
483;SDS011;228;48.922;12.198;2023-06-01T16:05:46;6.18;;;2.83;;
483;SDS011;228;48.922;12.198;2023-06-01T16:08:12;2.92;;;2.70;;
483;SDS011;228;48.922;12.198;2023-06-01T16:10:38;4.57;;;2.70;;
483;SDS011;228;48.922;12.198;2023-06-01T16:13:04;2.78;;;2.58;;
483;SDS011;228;48.922;12.198;2023-06-01T16:15:30;3.55;;;2.70;;
483;SDS011;228;48.922;12.198;2023-06-01T16:17:56;3.58;;;2.67;;
483;SDS011;228;48.922;12.198;2023-06-01T16:20:22;3.47;;;2.55;;
483;SDS011;228;48.922;12.198;2023-06-01T16:22:48;3.13;;;2.72;;
483;SDS011;228;48.922;12.198;2023-06-01T16:25:15;3.42;;;2.70;;
483;SDS011;228;48.922;12.198;2023-06-01T16:27:48;2.58;;;2.38;;
483;SDS011;228;48.922;12.198;2023-06-01T16:30:15;4.07;;;2.63;;
483;SDS011;228;48.922;12.198;2023-06-01T16:32:41;4.10;;;2.40;;
483;SDS011;228;48.922;12.198;2023-06-01T16:35:07;4.10;;;2.67;;
483;SDS011;228;48.922;12.198;2023-06-01T16:37:34;5.47;;;2.40;;
483;SDS011;228;48.922;12.198;2023-06-01T16:40:00;2.83;;;2.50;;
483;SDS011;228;48.922;12.198;2023-06-01T16:42:26;3.13;;;2.50;;
483;SDS011;228;48.922;12.198;2023-06-01T16:44:52;3.60;;;2.42;;
483;SDS011;228;48.922;12.198;2023-06-01T16:47:18;6.00;;;2.63;;
483;SDS011;228;48.922;12.198;2023-06-01T16:49:44;4.65;;;2.50;;
483;SDS011;228;48.922;12.198;2023-06-01T16:52:10;3.28;;;2.70;;
483;SDS011;228;48.922;12.198;2023-06-01T16:54:36;4.45;;;2.42;;
483;SDS011;228;48.922;12.198;2023-06-01T16:57:02;6.22;;;3.25;;
483;SDS011;228;48.922;12.198;2023-06-01T16:59:29;3.63;;;2.50;;
483;SDS011;228;48.922;12.198;2023-06-01T17:01:55;2.80;;;2.50;;
483;SDS011;228;48.922;12.198;2023-06-01T17:04:21;7.47;;;2.75;;
483;SDS011;228;48.922;12.198;2023-06-01T17:06:47;4.15;;;2.50;;
483;SDS011;228;48.922;12.198;2023-06-01T17:09:13;4.05;;;2.40;;
483;SDS011;228;48.922;12.198;2023-06-01T17:11:40;4.93;;;2.72;;
483;SDS011;228;48.922;12.198;2023-06-01T17:14:05;3.17;;;2.70;;
483;SDS011;228;48.922;12.198;2023-06-01T17:16:31;4.35;;;2.55;;
483;SDS011;228;48.922;12.198;2023-06-01T17:18:57;4.97;;;2.60;;
483;SDS011;228;48.922;12.198;2023-06-01T17:21:23;3.80;;;2.72;;
483;SDS011;228;48.922;12.198;2023-06-01T17:23:49;3.92;;;2.58;;
483;SDS011;228;48.922;12.198;2023-06-01T17:26:15;4.65;;;2.72;;
483;SDS011;228;48.922;12.198;2023-06-01T17:28:41;2.88;;;2.38;;
483;SDS011;228;48.922;12.198;2023-06-01T17:31:08;6.50;;;2.70;;
483;SDS011;228;48.922;12.198;2023-06-01T17:33:34;3.90;;;2.65;;
483;SDS011;228;48.922;12.198;2023-06-01T17:36:00;2.85;;;2.10;;
483;SDS011;228;48.922;12.198;2023-06-01T17:38:26;3.28;;;2.10;;
483;SDS011;228;48.922;12.198;2023-06-01T17:40:52;5.25;;;2.53;;
483;SDS011;228;48.922;12.198;2023-06-01T17:43:20;4.07;;;2.50;;
483;SDS011;228;48.922;12.198;2023-06-01T17:45:46;2.63;;;2.38;;
483;SDS011;228;48.922;12.198;2023-06-01T17:48:12;5.78;;;2.63;;
483;SDS011;228;48.922;12.198;2023-06-01T17:50:38;3.45;;;2.40;;
483;SDS011;228;48.922;12.198;2023-06-01T17:53:04;3.75;;;2.50;;
483;SDS011;228;48.922;12.198;2023-06-01T17:55:30;3.80;;;2.58;;
483;SDS011;228;48.922;12.198;2023-06-01T17:57:56;4.53;;;2.50;;
483;SDS011;228;48.922;12.198;2023-06-01T18:00:22;2.58;;;2.30;;
483;SDS011;228;48.922;12.198;2023-06-01T18:02:48;2.78;;;2.13;;
483;SDS011;228;48.922;12.198;2023-06-01T18:05:15;4.75;;;2.50;;
483;SDS011;228;48.922;12.198;2023-06-01T18:07:41;3.58;;;2.47;;
483;SDS011;228;48.922;12.198;2023-06-01T18:10:07;3.83;;;2.70;;
483;SDS011;228;48.922;12.198;2023-06-01T18:12:34;3.13;;;2.30;;
483;SDS011;228;48.922;12.198;2023-06-01T18:15:00;7.60;;;2.40;;
483;SDS011;228;48.922;12.198;2023-06-01T18:17:29;3.63;;;2.40;;
483;SDS011;228;48.922;12.198;2023-06-01T18:19:55;3.42;;;2.40;;
483;SDS011;228;48.922;12.198;2023-06-01T18:22:21;2.97;;;2.53;;
483;SDS011;228;48.922;12.198;2023-06-01T18:24:47;2.38;;;2.17;;
483;SDS011;228;48.922;12.198;2023-06-01T18:27:13;2.67;;;2.35;;
483;SDS011;228;48.922;12.198;2023-06-01T18:29:39;3.00;;;2.50;;
483;SDS011;228;48.922;12.198;2023-06-01T18:32:06;2.83;;;2.47;;
483;SDS011;228;48.922;12.198;2023-06-01T18:34:34;4.05;;;2.35;;
483;SDS011;228;48.922;12.198;2023-06-01T18:37:00;4.25;;;2.60;;
483;SDS011;228;48.922;12.198;2023-06-01T18:39:26;5.00;;;2.60;;
483;SDS011;228;48.922;12.198;2023-06-01T18:41:52;3.90;;;2.22;;
483;SDS011;228;48.922;12.198;2023-06-01T18:44:18;5.10;;;2.50;;
483;SDS011;228;48.922;12.198;2023-06-01T18:46:44;3.85;;;2.58;;
483;SDS011;228;48.922;12.198;2023-06-01T18:49:11;3.83;;;2.60;;
483;SDS011;228;48.922;12.198;2023-06-01T18:51:38;4.20;;;2.50;;
483;SDS011;228;48.922;12.198;2023-06-01T18:54:04;2.22;;;2.03;;
483;SDS011;228;48.922;12.198;2023-06-01T18:56:31;2.85;;;2.47;;
483;SDS011;228;48.922;12.198;2023-06-01T18:58:57;2.72;;;2.30;;
483;SDS011;228;48.922;12.198;2023-06-01T19:01:23;3.53;;;2.30;;
483;SDS011;228;48.922;12.198;2023-06-01T19:03:49;2.65;;;2.45;;
483;SDS011;228;48.922;12.198;2023-06-01T19:06:15;3.00;;;2.30;;
483;SDS011;228;48.922;12.198;2023-06-01T19:08:42;2.85;;;2.38;;
483;SDS011;228;48.922;12.198;2023-06-01T19:11:09;3.92;;;2.40;;
483;SDS011;228;48.922;12.198;2023-06-01T19:13:42;5.50;;;2.40;;
483;SDS011;228;48.922;12.198;2023-06-01T19:16:13;2.55;;;2.33;;
483;SDS011;228;48.922;12.198;2023-06-01T19:18:50;4.35;;;2.45;;
483;SDS011;228;48.922;12.198;2023-06-01T19:21:19;3.25;;;2.67;;
483;SDS011;228;48.922;12.198;2023-06-01T19:26:21;3.38;;;2.50;;
483;SDS011;228;48.922;12.198;2023-06-01T19:29:00;5.88;;;2.60;;
483;SDS011;228;48.922;12.198;2023-06-01T19:31:30;2.60;;;2.40;;
483;SDS011;228;48.922;12.198;2023-06-01T19:34:02;3.25;;;2.47;;
483;SDS011;228;48.922;12.198;2023-06-01T19:39:09;6.60;;;2.88;;
483;SDS011;228;48.922;12.198;2023-06-01T19:41:53;5.30;;;2.67;;
483;SDS011;228;48.922;12.198;2023-06-01T19:44:26;3.38;;;2.50;;
483;SDS011;228;48.922;12.198;2023-06-01T19:46:54;2.70;;;2.33;;
483;SDS011;228;48.922;12.198;2023-06-01T19:49:20;3.17;;;2.58;;
483;SDS011;228;48.922;12.198;2023-06-01T19:51:49;2.72;;;2.28;;
483;SDS011;228;48.922;12.198;2023-06-01T19:54:22;2.42;;;2.22;;
483;SDS011;228;48.922;12.198;2023-06-01T19:56:53;3.30;;;2.35;;
483;SDS011;228;48.922;12.198;2023-06-01T19:59:24;4.57;;;2.38;;
483;SDS011;228;48.922;12.198;2023-06-01T20:01:52;3.17;;;2.22;;
483;SDS011;228;48.922;12.198;2023-06-01T20:04:19;3.45;;;2.55;;
483;SDS011;228;48.922;12.198;2023-06-01T20:06:46;2.63;;;2.33;;
483;SDS011;228;48.922;12.198;2023-06-01T20:09:15;3.00;;;2.13;;
483;SDS011;228;48.922;12.198;2023-06-01T20:11:45;3.90;;;2.67;;
483;SDS011;228;48.922;12.198;2023-06-01T20:16:46;5.60;;;2.58;;
483;SDS011;228;48.922;12.198;2023-06-01T20:19:13;3.88;;;2.72;;